sensor_id;sensor_type;location;lat;lon;timestamp;P1;durP1;ratioP1;P2;durP2;ratioP2
9761;SDS011;4920;49.594;11.022;2023-12-20T00:01:31;10.40;;;7.87;;
9761;SDS011;4920;49.594;11.022;2023-12-20T00:04:00;10.00;;;7.47;;
9761;SDS011;4920;49.594;11.022;2023-12-20T00:06:30;10.30;;;7.27;;
9761;SDS011;4920;49.594;11.022;2023-12-20T00:08:59;12.43;;;8.07;;
9761;SDS011;4920;49.594;11.022;2023-12-20T00:11:29;13.03;;;8.27;;
9761;SDS011;4920;49.594;11.022;2023-12-20T00:13:58;10.33;;;8.13;;
9761;SDS011;4920;49.594;11.022;2023-12-20T00:16:27;10.77;;;7.77;;
9761;SDS011;4920;49.594;11.022;2023-12-20T00:18:56;11.87;;;8.10;;
9761;SDS011;4920;49.594;11.022;2023-12-20T00:21:25;11.00;;;8.30;;
9761;SDS011;4920;49.594;11.022;2023-12-20T00:23:54;10.27;;;7.30;;
9761;SDS011;4920;49.594;11.022;2023-12-20T00:26:23;11.73;;;7.70;;
9761;SDS011;4920;49.594;11.022;2023-12-20T00:28:53;10.83;;;8.10;;
9761;SDS011;4920;49.594;11.022;2023-12-20T00:31:22;10.27;;;7.60;;
9761;SDS011;4920;49.594;11.022;2023-12-20T00:33:52;10.53;;;7.53;;
9761;SDS011;4920;49.594;11.022;2023-12-20T00:36:21;12.33;;;7.57;;
9761;SDS011;4920;49.594;11.022;2023-12-20T00:38:50;14.37;;;7.37;;
9761;SDS011;4920;49.594;11.022;2023-12-20T00:41:19;14.50;;;7.43;;
9761;SDS011;4920;49.594;11.022;2023-12-20T00:43:48;12.30;;;8.10;;
9761;SDS011;4920;49.594;11.022;2023-12-20T00:46:19;12.03;;;7.50;;
9761;SDS011;4920;49.594;11.022;2023-12-20T00:48:48;10.47;;;7.03;;
9761;SDS011;4920;49.594;11.022;2023-12-20T00:51:17;11.43;;;7.47;;
9761;SDS011;4920;49.594;11.022;2023-12-20T00:53:46;10.73;;;6.93;;
9761;SDS011;4920;49.594;11.022;2023-12-20T00:56:16;8.87;;;6.20;;
9761;SDS011;4920;49.594;11.022;2023-12-20T00:58:45;10.97;;;6.40;;
9761;SDS011;4920;49.594;11.022;2023-12-20T01:01:15;8.67;;;6.37;;
9761;SDS011;4920;49.594;11.022;2023-12-20T01:03:45;9.93;;;6.37;;
9761;SDS011;4920;49.594;11.022;2023-12-20T01:06:15;6.67;;;4.90;;
9761;SDS011;4920;49.594;11.022;2023-12-20T01:08:44;9.07;;;5.37;;
9761;SDS011;4920;49.594;11.022;2023-12-20T01:11:13;6.17;;;4.70;;
9761;SDS011;4920;49.594;11.022;2023-12-20T01:13:42;7.50;;;4.70;;
9761;SDS011;4920;49.594;11.022;2023-12-20T01:16:11;7.53;;;4.97;;
9761;SDS011;4920;49.594;11.022;2023-12-20T01:18:40;10.27;;;5.63;;
9761;SDS011;4920;49.594;11.022;2023-12-20T01:21:10;8.10;;;5.13;;
9761;SDS011;4920;49.594;11.022;2023-12-20T01:23:39;7.53;;;4.80;;
9761;SDS011;4920;49.594;11.022;2023-12-20T01:26:08;6.47;;;4.70;;
9761;SDS011;4920;49.594;11.022;2023-12-20T01:28:37;8.67;;;4.47;;
9761;SDS011;4920;49.594;11.022;2023-12-20T01:31:06;5.47;;;4.47;;
9761;SDS011;4920;49.594;11.022;2023-12-20T01:33:37;11.77;;;5.17;;
9761;SDS011;4920;49.594;11.022;2023-12-20T01:36:06;7.53;;;4.87;;
9761;SDS011;4920;49.594;11.022;2023-12-20T01:38:36;5.37;;;4.20;;
9761;SDS011;4920;49.594;11.022;2023-12-20T01:41:06;5.33;;;4.20;;
9761;SDS011;4920;49.594;11.022;2023-12-20T01:43:34;4.77;;;3.90;;
9761;SDS011;4920;49.594;11.022;2023-12-20T01:46:16;7.53;;;3.70;;
9761;SDS011;4920;49.594;11.022;2023-12-20T01:48:45;6.03;;;4.13;;
9761;SDS011;4920;49.594;11.022;2023-12-20T01:51:15;4.87;;;4.17;;
9761;SDS011;4920;49.594;11.022;2023-12-20T01:53:46;4.83;;;3.77;;
9761;SDS011;4920;49.594;11.022;2023-12-20T01:56:15;5.80;;;3.40;;
9761;SDS011;4920;49.594;11.022;2023-12-20T01:58:45;6.30;;;3.43;;
9761;SDS011;4920;49.594;11.022;2023-12-20T02:01:15;5.53;;;3.90;;
9761;SDS011;4920;49.594;11.022;2023-12-20T02:03:45;4.73;;;3.47;;
9761;SDS011;4920;49.594;11.022;2023-12-20T02:06:14;5.07;;;3.47;;
9761;SDS011;4920;49.594;11.022;2023-12-20T02:08:45;4.33;;;3.40;;
9761;SDS011;4920;49.594;11.022;2023-12-20T02:11:14;4.27;;;3.70;;
9761;SDS011;4920;49.594;11.022;2023-12-20T02:13:42;4.53;;;3.27;;
9761;SDS011;4920;49.594;11.022;2023-12-20T02:16:12;3.90;;;3.50;;
9761;SDS011;4920;49.594;11.022;2023-12-20T02:18:41;4.73;;;3.57;;
9761;SDS011;4920;49.594;11.022;2023-12-20T02:21:11;5.20;;;3.27;;
9761;SDS011;4920;49.594;11.022;2023-12-20T02:23:42;4.50;;;3.13;;
9761;SDS011;4920;49.594;11.022;2023-12-20T02:26:11;3.57;;;3.00;;
9761;SDS011;4920;49.594;11.022;2023-12-20T02:28:41;5.13;;;3.00;;
9761;SDS011;4920;49.594;11.022;2023-12-20T02:31:10;3.83;;;3.00;;
9761;SDS011;4920;49.594;11.022;2023-12-20T02:33:39;4.00;;;2.97;;
9761;SDS011;4920;49.594;11.022;2023-12-20T02:36:09;3.17;;;2.60;;
9761;SDS011;4920;49.594;11.022;2023-12-20T02:38:38;3.40;;;2.73;;
9761;SDS011;4920;49.594;11.022;2023-12-20T02:41:08;3.00;;;2.60;;
9761;SDS011;4920;49.594;11.022;2023-12-20T02:43:37;4.37;;;2.60;;
9761;SDS011;4920;49.594;11.022;2023-12-20T02:46:06;2.73;;;2.37;;
9761;SDS011;4920;49.594;11.022;2023-12-20T02:48:35;4.57;;;2.40;;
9761;SDS011;4920;49.594;11.022;2023-12-20T02:51:04;2.93;;;2.40;;
9761;SDS011;4920;49.594;11.022;2023-12-20T02:53:33;3.37;;;2.60;;
9761;SDS011;4920;49.594;11.022;2023-12-20T02:56:02;3.53;;;2.60;;
9761;SDS011;4920;49.594;11.022;2023-12-20T02:58:33;3.20;;;2.50;;
9761;SDS011;4920;49.594;11.022;2023-12-20T03:01:02;4.23;;;2.43;;
9761;SDS011;4920;49.594;11.022;2023-12-20T03:03:31;4.03;;;2.50;;
9761;SDS011;4920;49.594;11.022;2023-12-20T03:06:00;3.50;;;2.30;;
9761;SDS011;4920;49.594;11.022;2023-12-20T03:08:29;3.37;;;2.50;;
9761;SDS011;4920;49.594;11.022;2023-12-20T03:10:58;3.40;;;2.53;;
9761;SDS011;4920;49.594;11.022;2023-12-20T03:13:27;2.27;;;2.07;;
9761;SDS011;4920;49.594;11.022;2023-12-20T03:15:58;2.57;;;2.10;;
9761;SDS011;4920;49.594;11.022;2023-12-20T03:18:26;2.43;;;2.17;;
9761;SDS011;4920;49.594;11.022;2023-12-20T03:20:56;2.30;;;2.10;;
9761;SDS011;4920;49.594;11.022;2023-12-20T03:23:25;2.50;;;2.10;;
9761;SDS011;4920;49.594;11.022;2023-12-20T03:25:54;2.70;;;2.30;;
9761;SDS011;4920;49.594;11.022;2023-12-20T03:28:23;2.87;;;2.20;;
9761;SDS011;4920;49.594;11.022;2023-12-20T03:30:52;3.07;;;2.40;;
9761;SDS011;4920;49.594;11.022;2023-12-20T03:33:23;2.60;;;2.23;;
9761;SDS011;4920;49.594;11.022;2023-12-20T03:35:52;2.40;;;2.20;;
9761;SDS011;4920;49.594;11.022;2023-12-20T03:38:20;3.20;;;2.27;;
9761;SDS011;4920;49.594;11.022;2023-12-20T03:40:51;2.60;;;2.27;;
9761;SDS011;4920;49.594;11.022;2023-12-20T03:43:20;2.57;;;2.27;;
9761;SDS011;4920;49.594;11.022;2023-12-20T03:45:49;2.80;;;2.30;;
9761;SDS011;4920;49.594;11.022;2023-12-20T03:48:18;2.40;;;2.20;;
9761;SDS011;4920;49.594;11.022;2023-12-20T03:50:49;2.57;;;2.37;;
9761;SDS011;4920;49.594;11.022;2023-12-20T03:53:18;2.57;;;2.30;;
9761;SDS011;4920;49.594;11.022;2023-12-20T03:55:47;3.30;;;2.27;;
9761;SDS011;4920;49.594;11.022;2023-12-20T03:58:16;2.70;;;2.37;;
9761;SDS011;4920;49.594;11.022;2023-12-20T04:00:45;3.10;;;2.20;;
9761;SDS011;4920;49.594;11.022;2023-12-20T04:03:14;2.30;;;2.10;;
9761;SDS011;4920;49.594;11.022;2023-12-20T04:05:43;2.23;;;2.03;;
9761;SDS011;4920;49.594;11.022;2023-12-20T04:08:14;3.33;;;2.43;;
9761;SDS011;4920;49.594;11.022;2023-12-20T04:10:43;4.13;;;2.37;;
9761;SDS011;4920;49.594;11.022;2023-12-20T04:13:12;2.90;;;2.40;;
9761;SDS011;4920;49.594;11.022;2023-12-20T04:15:41;3.23;;;2.33;;
9761;SDS011;4920;49.594;11.022;2023-12-20T04:18:10;2.60;;;2.20;;
9761;SDS011;4920;49.594;11.022;2023-12-20T04:20:38;3.10;;;2.27;;
9761;SDS011;4920;49.594;11.022;2023-12-20T04:23:07;5.13;;;2.50;;
9761;SDS011;4920;49.594;11.022;2023-12-20T04:25:38;2.73;;;2.20;;
9761;SDS011;4920;49.594;11.022;2023-12-20T04:28:07;3.53;;;2.40;;
9761;SDS011;4920;49.594;11.022;2023-12-20T04:30:36;3.47;;;2.20;;
9761;SDS011;4920;49.594;11.022;2023-12-20T04:33:05;3.10;;;2.23;;
9761;SDS011;4920;49.594;11.022;2023-12-20T04:35:34;3.07;;;2.30;;
9761;SDS011;4920;49.594;11.022;2023-12-20T04:38:03;2.53;;;2.23;;
9761;SDS011;4920;49.594;11.022;2023-12-20T04:40:32;4.37;;;2.43;;
9761;SDS011;4920;49.594;11.022;2023-12-20T04:43:02;2.80;;;2.30;;
9761;SDS011;4920;49.594;11.022;2023-12-20T04:45:32;2.60;;;2.20;;
9761;SDS011;4920;49.594;11.022;2023-12-20T04:48:01;3.70;;;2.30;;
9761;SDS011;4920;49.594;11.022;2023-12-20T04:50:31;2.80;;;2.30;;
9761;SDS011;4920;49.594;11.022;2023-12-20T04:53:00;2.83;;;2.27;;
9761;SDS011;4920;49.594;11.022;2023-12-20T04:55:29;3.60;;;2.57;;
9761;SDS011;4920;49.594;11.022;2023-12-20T04:57:58;3.30;;;2.60;;
9761;SDS011;4920;49.594;11.022;2023-12-20T05:00:29;2.83;;;2.40;;
9761;SDS011;4920;49.594;11.022;2023-12-20T05:02:58;3.07;;;2.47;;
9761;SDS011;4920;49.594;11.022;2023-12-20T05:05:27;2.67;;;2.47;;
9761;SDS011;4920;49.594;11.022;2023-12-20T05:07:56;4.67;;;3.03;;
9761;SDS011;4920;49.594;11.022;2023-12-20T05:10:25;3.37;;;2.87;;
9761;SDS011;4920;49.594;11.022;2023-12-20T05:12:54;3.70;;;2.47;;
9761;SDS011;4920;49.594;11.022;2023-12-20T05:15:23;4.53;;;2.70;;
9761;SDS011;4920;49.594;11.022;2023-12-20T05:17:54;3.37;;;2.63;;
9761;SDS011;4920;49.594;11.022;2023-12-20T05:20:23;3.57;;;2.90;;
9761;SDS011;4920;49.594;11.022;2023-12-20T05:22:52;3.67;;;2.57;;
9761;SDS011;4920;49.594;11.022;2023-12-20T05:25:21;5.17;;;3.00;;
9761;SDS011;4920;49.594;11.022;2023-12-20T05:27:50;4.33;;;2.93;;
9761;SDS011;4920;49.594;11.022;2023-12-20T05:30:19;4.03;;;3.00;;
9761;SDS011;4920;49.594;11.022;2023-12-20T05:32:48;9.00;;;3.30;;
9761;SDS011;4920;49.594;11.022;2023-12-20T05:35:19;3.67;;;3.00;;
9761;SDS011;4920;49.594;11.022;2023-12-20T05:37:50;5.13;;;3.20;;
9761;SDS011;4920;49.594;11.022;2023-12-20T05:40:19;3.90;;;2.73;;
9761;SDS011;4920;49.594;11.022;2023-12-20T05:42:48;3.43;;;3.00;;
9761;SDS011;4920;49.594;11.022;2023-12-20T05:45:17;3.23;;;2.90;;
9761;SDS011;4920;49.594;11.022;2023-12-20T05:47:46;3.70;;;2.80;;
9761;SDS011;4920;49.594;11.022;2023-12-20T05:50:15;3.60;;;2.80;;
9761;SDS011;4920;49.594;11.022;2023-12-20T05:52:46;3.70;;;2.87;;
9761;SDS011;4920;49.594;11.022;2023-12-20T05:55:14;3.50;;;2.67;;
9761;SDS011;4920;49.594;11.022;2023-12-20T05:57:43;4.27;;;2.77;;
9761;SDS011;4920;49.594;11.022;2023-12-20T06:00:13;5.70;;;2.97;;
9761;SDS011;4920;49.594;11.022;2023-12-20T06:02:43;3.10;;;2.80;;
9761;SDS011;4920;49.594;11.022;2023-12-20T06:05:12;4.73;;;3.20;;
9761;SDS011;4920;49.594;11.022;2023-12-20T06:07:41;3.93;;;3.10;;
9761;SDS011;4920;49.594;11.022;2023-12-20T06:10:13;5.07;;;3.03;;
9761;SDS011;4920;49.594;11.022;2023-12-20T06:12:42;3.57;;;3.23;;
9761;SDS011;4920;49.594;11.022;2023-12-20T06:15:11;5.17;;;3.50;;
9761;SDS011;4920;49.594;11.022;2023-12-20T06:17:40;4.47;;;3.47;;
9761;SDS011;4920;49.594;11.022;2023-12-20T06:20:10;5.43;;;3.50;;
9761;SDS011;4920;49.594;11.022;2023-12-20T06:22:40;4.30;;;3.57;;
9761;SDS011;4920;49.594;11.022;2023-12-20T06:25:09;4.77;;;3.50;;
9761;SDS011;4920;49.594;11.022;2023-12-20T06:27:39;3.83;;;3.27;;
9761;SDS011;4920;49.594;11.022;2023-12-20T06:30:09;3.87;;;3.47;;
9761;SDS011;4920;49.594;11.022;2023-12-20T06:32:38;4.07;;;3.67;;
9761;SDS011;4920;49.594;11.022;2023-12-20T06:35:09;4.37;;;3.73;;
9761;SDS011;4920;49.594;11.022;2023-12-20T06:37:38;4.70;;;3.63;;
9761;SDS011;4920;49.594;11.022;2023-12-20T06:40:10;7.73;;;4.27;;
9761;SDS011;4920;49.594;11.022;2023-12-20T06:42:45;4.97;;;3.80;;
9761;SDS011;4920;49.594;11.022;2023-12-20T06:45:31;10.37;;;4.80;;
9761;SDS011;4920;49.594;11.022;2023-12-20T06:47:59;4.87;;;3.83;;
9761;SDS011;4920;49.594;11.022;2023-12-20T06:50:29;5.00;;;4.20;;
9761;SDS011;4920;49.594;11.022;2023-12-20T06:52:58;4.30;;;3.90;;
9761;SDS011;4920;49.594;11.022;2023-12-20T06:55:34;4.57;;;4.00;;
9761;SDS011;4920;49.594;11.022;2023-12-20T06:58:06;4.13;;;3.70;;
9761;SDS011;4920;49.594;11.022;2023-12-20T07:00:35;11.40;;;4.40;;
9761;SDS011;4920;49.594;11.022;2023-12-20T07:03:05;7.00;;;4.50;;
9761;SDS011;4920;49.594;11.022;2023-12-20T07:05:33;5.40;;;4.00;;
9761;SDS011;4920;49.594;11.022;2023-12-20T07:08:02;6.10;;;4.60;;
9761;SDS011;4920;49.594;11.022;2023-12-20T07:10:32;5.40;;;4.87;;
9761;SDS011;4920;49.594;11.022;2023-12-20T07:13:01;6.30;;;5.23;;
9761;SDS011;4920;49.594;11.022;2023-12-20T07:15:34;4.80;;;4.13;;
9761;SDS011;4920;49.594;11.022;2023-12-20T07:18:04;5.50;;;4.20;;
9761;SDS011;4920;49.594;11.022;2023-12-20T07:20:34;6.07;;;4.57;;
9761;SDS011;4920;49.594;11.022;2023-12-20T07:23:03;4.77;;;4.27;;
9761;SDS011;4920;49.594;11.022;2023-12-20T07:25:32;5.77;;;4.80;;
9761;SDS011;4920;49.594;11.022;2023-12-20T07:28:01;5.83;;;4.80;;
9761;SDS011;4920;49.594;11.022;2023-12-20T07:30:31;6.60;;;4.87;;
9761;SDS011;4920;49.594;11.022;2023-12-20T07:33:00;6.60;;;5.30;;
9761;SDS011;4920;49.594;11.022;2023-12-20T07:35:30;6.20;;;5.20;;
9761;SDS011;4920;49.594;11.022;2023-12-20T07:37:59;6.57;;;5.27;;
9761;SDS011;4920;49.594;11.022;2023-12-20T07:40:29;7.50;;;5.73;;
9761;SDS011;4920;49.594;11.022;2023-12-20T07:42:58;6.07;;;5.23;;
9761;SDS011;4920;49.594;11.022;2023-12-20T07:45:27;6.67;;;5.53;;
9761;SDS011;4920;49.594;11.022;2023-12-20T07:47:57;6.10;;;5.37;;
9761;SDS011;4920;49.594;11.022;2023-12-20T07:50:27;6.20;;;5.30;;
9761;SDS011;4920;49.594;11.022;2023-12-20T07:52:56;5.77;;;4.63;;
9761;SDS011;4920;49.594;11.022;2023-12-20T07:55:26;5.60;;;5.00;;
9761;SDS011;4920;49.594;11.022;2023-12-20T07:57:57;5.20;;;4.70;;
9761;SDS011;4920;49.594;11.022;2023-12-20T08:00:26;5.20;;;4.70;;
9761;SDS011;4920;49.594;11.022;2023-12-20T08:02:57;4.57;;;4.17;;
9761;SDS011;4920;49.594;11.022;2023-12-20T08:05:26;5.10;;;4.33;;
9761;SDS011;4920;49.594;11.022;2023-12-20T08:07:55;4.33;;;3.93;;
9761;SDS011;4920;49.594;11.022;2023-12-20T08:10:24;4.63;;;4.00;;
9761;SDS011;4920;49.594;11.022;2023-12-20T08:12:54;4.17;;;3.77;;
9761;SDS011;4920;49.594;11.022;2023-12-20T08:15:23;5.00;;;4.10;;
9761;SDS011;4920;49.594;11.022;2023-12-20T08:17:51;4.40;;;4.00;;
9761;SDS011;4920;49.594;11.022;2023-12-20T08:20:23;5.27;;;4.40;;
9761;SDS011;4920;49.594;11.022;2023-12-20T08:23:05;4.00;;;3.60;;
9761;SDS011;4920;49.594;11.022;2023-12-20T08:25:34;4.50;;;4.10;;
9761;SDS011;4920;49.594;11.022;2023-12-20T08:28:03;4.13;;;3.77;;
9761;SDS011;4920;49.594;11.022;2023-12-20T08:30:33;4.10;;;3.70;;
9761;SDS011;4920;49.594;11.022;2023-12-20T08:33:02;3.50;;;3.20;;
9761;SDS011;4920;49.594;11.022;2023-12-20T08:35:33;4.23;;;3.57;;
9761;SDS011;4920;49.594;11.022;2023-12-20T08:38:02;4.57;;;3.80;;
9761;SDS011;4920;49.594;11.022;2023-12-20T08:40:32;4.90;;;3.80;;
9761;SDS011;4920;49.594;11.022;2023-12-20T08:43:01;6.30;;;4.30;;
9761;SDS011;4920;49.594;11.022;2023-12-20T08:45:30;5.40;;;3.83;;
9761;SDS011;4920;49.594;11.022;2023-12-20T08:47:59;4.77;;;4.23;;
9761;SDS011;4920;49.594;11.022;2023-12-20T08:50:33;6.03;;;4.80;;
9761;SDS011;4920;49.594;11.022;2023-12-20T08:53:02;9.33;;;5.07;;
9761;SDS011;4920;49.594;11.022;2023-12-20T08:55:32;7.83;;;5.17;;
9761;SDS011;4920;49.594;11.022;2023-12-20T08:58:01;5.50;;;4.87;;
9761;SDS011;4920;49.594;11.022;2023-12-20T09:00:30;6.70;;;5.40;;
9761;SDS011;4920;49.594;11.022;2023-12-20T09:02:59;6.97;;;5.40;;
9761;SDS011;4920;49.594;11.022;2023-12-20T09:05:29;6.00;;;4.60;;
9761;SDS011;4920;49.594;11.022;2023-12-20T09:08:00;5.67;;;4.40;;
9761;SDS011;4920;49.594;11.022;2023-12-20T09:10:29;7.53;;;4.70;;
9761;SDS011;4920;49.594;11.022;2023-12-20T09:12:58;4.47;;;4.07;;
9761;SDS011;4920;49.594;11.022;2023-12-20T09:15:27;5.90;;;4.10;;
9761;SDS011;4920;49.594;11.022;2023-12-20T09:18:01;5.17;;;4.33;;
9761;SDS011;4920;49.594;11.022;2023-12-20T09:20:31;5.60;;;3.50;;
9761;SDS011;4920;49.594;11.022;2023-12-20T09:23:02;8.03;;;3.67;;
9761;SDS011;4920;49.594;11.022;2023-12-20T09:25:31;6.33;;;3.67;;
9761;SDS011;4920;49.594;11.022;2023-12-20T09:28:00;5.23;;;3.30;;
9761;SDS011;4920;49.594;11.022;2023-12-20T09:30:29;4.97;;;3.60;;
9761;SDS011;4920;49.594;11.022;2023-12-20T09:32:58;4.10;;;3.07;;
9761;SDS011;4920;49.594;11.022;2023-12-20T09:35:27;5.40;;;3.00;;
9761;SDS011;4920;49.594;11.022;2023-12-20T09:37:56;4.67;;;3.03;;
9761;SDS011;4920;49.594;11.022;2023-12-20T09:40:27;5.07;;;2.83;;
9761;SDS011;4920;49.594;11.022;2023-12-20T09:42:57;6.53;;;2.97;;
9761;SDS011;4920;49.594;11.022;2023-12-20T09:45:31;4.57;;;2.50;;
9761;SDS011;4920;49.594;11.022;2023-12-20T09:48:00;4.70;;;2.70;;
9761;SDS011;4920;49.594;11.022;2023-12-20T09:50:31;6.60;;;2.30;;
9761;SDS011;4920;49.594;11.022;2023-12-20T09:53:00;5.97;;;2.70;;
9761;SDS011;4920;49.594;11.022;2023-12-20T09:55:33;3.03;;;2.00;;
9761;SDS011;4920;49.594;11.022;2023-12-20T09:58:04;6.43;;;2.60;;
9761;SDS011;4920;49.594;11.022;2023-12-20T10:00:34;5.53;;;2.50;;
9761;SDS011;4920;49.594;11.022;2023-12-20T10:03:04;5.70;;;2.33;;
9761;SDS011;4920;49.594;11.022;2023-12-20T10:05:35;4.63;;;2.40;;
9761;SDS011;4920;49.594;11.022;2023-12-20T10:08:04;4.77;;;2.40;;
9761;SDS011;4920;49.594;11.022;2023-12-20T10:10:35;5.33;;;2.33;;
9761;SDS011;4920;49.594;11.022;2023-12-20T10:13:14;4.90;;;2.50;;
9761;SDS011;4920;49.594;11.022;2023-12-20T10:15:44;5.33;;;2.60;;
9761;SDS011;4920;49.594;11.022;2023-12-20T10:18:14;6.40;;;2.30;;
9761;SDS011;4920;49.594;11.022;2023-12-20T10:20:43;5.73;;;2.20;;
9761;SDS011;4920;49.594;11.022;2023-12-20T10:23:14;2.97;;;2.03;;
9761;SDS011;4920;49.594;11.022;2023-12-20T10:25:52;4.23;;;2.40;;
9761;SDS011;4920;49.594;11.022;2023-12-20T10:28:25;3.23;;;1.90;;
9761;SDS011;4920;49.594;11.022;2023-12-20T10:30:55;7.50;;;2.90;;
9761;SDS011;4920;49.594;11.022;2023-12-20T10:33:25;6.93;;;2.23;;
9761;SDS011;4920;49.594;11.022;2023-12-20T10:35:55;4.20;;;2.20;;
9761;SDS011;4920;49.594;11.022;2023-12-20T10:38:24;4.60;;;2.10;;
9761;SDS011;4920;49.594;11.022;2023-12-20T10:40:58;7.07;;;2.17;;
9761;SDS011;4920;49.594;11.022;2023-12-20T10:43:27;5.97;;;2.20;;
9761;SDS011;4920;49.594;11.022;2023-12-20T10:45:59;7.17;;;2.27;;
9761;SDS011;4920;49.594;11.022;2023-12-20T10:48:28;4.33;;;2.20;;
9761;SDS011;4920;49.594;11.022;2023-12-20T10:51:00;4.97;;;2.30;;
9761;SDS011;4920;49.594;11.022;2023-12-20T10:53:30;2.37;;;1.70;;
9761;SDS011;4920;49.594;11.022;2023-12-20T10:56:01;3.87;;;2.00;;
9761;SDS011;4920;49.594;11.022;2023-12-20T10:58:31;3.03;;;2.00;;
9761;SDS011;4920;49.594;11.022;2023-12-20T11:01:01;4.87;;;2.10;;
9761;SDS011;4920;49.594;11.022;2023-12-20T11:03:34;4.50;;;2.17;;
9761;SDS011;4920;49.594;11.022;2023-12-20T11:06:07;7.40;;;2.10;;
9761;SDS011;4920;49.594;11.022;2023-12-20T11:08:44;7.33;;;2.10;;
9761;SDS011;4920;49.594;11.022;2023-12-20T11:11:20;6.60;;;2.20;;
9761;SDS011;4920;49.594;11.022;2023-12-20T11:13:57;5.20;;;1.87;;
9761;SDS011;4920;49.594;11.022;2023-12-20T11:16:29;5.90;;;2.20;;
9761;SDS011;4920;49.594;11.022;2023-12-20T11:19:14;4.40;;;2.20;;
9761;SDS011;4920;49.594;11.022;2023-12-20T11:21:43;5.10;;;2.03;;
9761;SDS011;4920;49.594;11.022;2023-12-20T11:24:15;3.87;;;1.90;;
9761;SDS011;4920;49.594;11.022;2023-12-20T11:26:47;5.57;;;2.20;;
9761;SDS011;4920;49.594;11.022;2023-12-20T11:29:30;5.57;;;2.00;;
9761;SDS011;4920;49.594;11.022;2023-12-20T11:32:01;4.13;;;1.93;;
9761;SDS011;4920;49.594;11.022;2023-12-20T11:34:33;5.33;;;1.83;;
9761;SDS011;4920;49.594;11.022;2023-12-20T11:37:04;7.13;;;2.10;;
9761;SDS011;4920;49.594;11.022;2023-12-20T11:39:34;4.67;;;1.80;;
9761;SDS011;4920;49.594;11.022;2023-12-20T11:42:07;2.97;;;2.10;;
9761;SDS011;4920;49.594;11.022;2023-12-20T11:44:38;5.23;;;2.20;;
9761;SDS011;4920;49.594;11.022;2023-12-20T11:47:07;4.50;;;1.90;;
9761;SDS011;4920;49.594;11.022;2023-12-20T11:49:39;6.13;;;2.10;;
9761;SDS011;4920;49.594;11.022;2023-12-20T11:52:08;10.93;;;2.27;;
9761;SDS011;4920;49.594;11.022;2023-12-20T11:54:40;4.90;;;2.13;;
9761;SDS011;4920;49.594;11.022;2023-12-20T11:57:10;4.30;;;1.87;;
9761;SDS011;4920;49.594;11.022;2023-12-20T11:59:39;3.83;;;2.00;;
9761;SDS011;4920;49.594;11.022;2023-12-20T12:02:08;5.77;;;2.27;;
9761;SDS011;4920;49.594;11.022;2023-12-20T12:04:41;4.97;;;2.00;;
9761;SDS011;4920;49.594;11.022;2023-12-20T12:07:10;4.93;;;2.10;;
9761;SDS011;4920;49.594;11.022;2023-12-20T12:09:39;5.60;;;2.63;;
9761;SDS011;4920;49.594;11.022;2023-12-20T12:12:08;4.83;;;2.30;;
9761;SDS011;4920;49.594;11.022;2023-12-20T12:14:40;7.10;;;2.43;;
9761;SDS011;4920;49.594;11.022;2023-12-20T12:17:12;6.53;;;3.07;;
9761;SDS011;4920;49.594;11.022;2023-12-20T12:19:42;5.43;;;2.30;;
9761;SDS011;4920;49.594;11.022;2023-12-20T12:22:12;4.17;;;2.70;;
9761;SDS011;4920;49.594;11.022;2023-12-20T12:24:44;3.43;;;2.30;;
9761;SDS011;4920;49.594;11.022;2023-12-20T12:27:15;5.03;;;2.20;;
9761;SDS011;4920;49.594;11.022;2023-12-20T12:29:59;4.20;;;2.00;;
9761;SDS011;4920;49.594;11.022;2023-12-20T12:32:30;5.73;;;2.47;;
9761;SDS011;4920;49.594;11.022;2023-12-20T12:35:00;5.00;;;2.00;;
9761;SDS011;4920;49.594;11.022;2023-12-20T12:37:33;5.10;;;2.13;;
9761;SDS011;4920;49.594;11.022;2023-12-20T12:40:03;5.93;;;2.20;;
9761;SDS011;4920;49.594;11.022;2023-12-20T12:42:34;6.17;;;2.27;;
9761;SDS011;4920;49.594;11.022;2023-12-20T12:45:04;6.37;;;2.63;;
9761;SDS011;4920;49.594;11.022;2023-12-20T12:47:35;5.40;;;2.40;;
9761;SDS011;4920;49.594;11.022;2023-12-20T12:50:04;4.93;;;2.47;;
9761;SDS011;4920;49.594;11.022;2023-12-20T12:52:34;4.87;;;2.23;;
9761;SDS011;4920;49.594;11.022;2023-12-20T12:55:04;4.97;;;2.20;;
9761;SDS011;4920;49.594;11.022;2023-12-20T12:57:35;4.93;;;2.33;;
9761;SDS011;4920;49.594;11.022;2023-12-20T13:00:04;6.77;;;2.10;;
9761;SDS011;4920;49.594;11.022;2023-12-20T13:02:36;5.20;;;2.33;;
9761;SDS011;4920;49.594;11.022;2023-12-20T13:05:09;6.43;;;2.63;;
9761;SDS011;4920;49.594;11.022;2023-12-20T13:07:38;5.93;;;2.20;;
9761;SDS011;4920;49.594;11.022;2023-12-20T13:10:07;6.47;;;2.40;;
9761;SDS011;4920;49.594;11.022;2023-12-20T13:12:39;6.43;;;2.80;;
9761;SDS011;4920;49.594;11.022;2023-12-20T13:15:08;6.33;;;2.37;;
9761;SDS011;4920;49.594;11.022;2023-12-20T13:17:37;8.50;;;2.93;;
9761;SDS011;4920;49.594;11.022;2023-12-20T13:20:07;7.37;;;2.60;;
9761;SDS011;4920;49.594;11.022;2023-12-20T13:22:37;5.63;;;2.60;;
9761;SDS011;4920;49.594;11.022;2023-12-20T13:25:06;7.90;;;2.70;;
9761;SDS011;4920;49.594;11.022;2023-12-20T13:27:35;5.50;;;2.67;;
9761;SDS011;4920;49.594;11.022;2023-12-20T13:30:06;6.67;;;2.73;;
9761;SDS011;4920;49.594;11.022;2023-12-20T13:32:35;5.27;;;2.40;;
9761;SDS011;4920;49.594;11.022;2023-12-20T13:35:06;5.90;;;2.60;;
9761;SDS011;4920;49.594;11.022;2023-12-20T13:37:36;4.60;;;2.30;;
9761;SDS011;4920;49.594;11.022;2023-12-20T13:40:05;6.23;;;2.63;;
9761;SDS011;4920;49.594;11.022;2023-12-20T13:42:35;4.93;;;2.20;;
9761;SDS011;4920;49.594;11.022;2023-12-20T13:45:06;6.87;;;2.20;;
9761;SDS011;4920;49.594;11.022;2023-12-20T13:47:36;7.87;;;2.40;;
9761;SDS011;4920;49.594;11.022;2023-12-20T13:50:05;6.80;;;2.27;;
9761;SDS011;4920;49.594;11.022;2023-12-20T13:52:35;4.43;;;2.13;;
9761;SDS011;4920;49.594;11.022;2023-12-20T13:55:05;5.63;;;2.27;;
9761;SDS011;4920;49.594;11.022;2023-12-20T13:57:35;4.23;;;2.23;;
9761;SDS011;4920;49.594;11.022;2023-12-20T14:00:11;6.37;;;2.50;;
9761;SDS011;4920;49.594;11.022;2023-12-20T14:02:42;5.53;;;2.00;;
9761;SDS011;4920;49.594;11.022;2023-12-20T14:05:13;5.70;;;2.40;;
9761;SDS011;4920;49.594;11.022;2023-12-20T14:07:45;6.43;;;2.13;;
9761;SDS011;4920;49.594;11.022;2023-12-20T14:10:15;4.93;;;2.20;;
9761;SDS011;4920;49.594;11.022;2023-12-20T14:12:44;7.23;;;2.10;;
9761;SDS011;4920;49.594;11.022;2023-12-20T14:15:15;5.53;;;2.13;;
9761;SDS011;4920;49.594;11.022;2023-12-20T14:17:44;4.93;;;2.23;;
9761;SDS011;4920;49.594;11.022;2023-12-20T14:20:13;4.30;;;1.93;;
9761;SDS011;4920;49.594;11.022;2023-12-20T14:22:43;6.47;;;2.30;;
9761;SDS011;4920;49.594;11.022;2023-12-20T14:25:13;5.57;;;2.00;;
9761;SDS011;4920;49.594;11.022;2023-12-20T14:27:42;6.80;;;2.47;;
9761;SDS011;4920;49.594;11.022;2023-12-20T14:30:12;5.57;;;2.10;;
9761;SDS011;4920;49.594;11.022;2023-12-20T14:32:44;5.33;;;1.90;;
9761;SDS011;4920;49.594;11.022;2023-12-20T14:35:14;5.87;;;2.37;;
9761;SDS011;4920;49.594;11.022;2023-12-20T14:37:43;5.87;;;1.90;;
9761;SDS011;4920;49.594;11.022;2023-12-20T14:40:13;3.90;;;2.00;;
9761;SDS011;4920;49.594;11.022;2023-12-20T14:42:43;5.87;;;2.10;;
9761;SDS011;4920;49.594;11.022;2023-12-20T14:45:16;7.07;;;2.17;;
9761;SDS011;4920;49.594;11.022;2023-12-20T14:47:46;6.23;;;2.20;;
9761;SDS011;4920;49.594;11.022;2023-12-20T14:50:16;6.37;;;2.10;;
9761;SDS011;4920;49.594;11.022;2023-12-20T14:52:46;5.20;;;2.20;;
9761;SDS011;4920;49.594;11.022;2023-12-20T14:55:15;3.70;;;1.90;;
9761;SDS011;4920;49.594;11.022;2023-12-20T14:57:44;4.93;;;2.00;;
9761;SDS011;4920;49.594;11.022;2023-12-20T15:00:15;5.73;;;2.17;;
9761;SDS011;4920;49.594;11.022;2023-12-20T15:02:45;5.10;;;2.20;;
9761;SDS011;4920;49.594;11.022;2023-12-20T15:05:14;5.23;;;2.33;;
9761;SDS011;4920;49.594;11.022;2023-12-20T15:07:44;7.43;;;2.27;;
9761;SDS011;4920;49.594;11.022;2023-12-20T15:10:15;4.73;;;2.30;;
9761;SDS011;4920;49.594;11.022;2023-12-20T15:12:45;5.50;;;2.27;;
9761;SDS011;4920;49.594;11.022;2023-12-20T15:15:15;4.50;;;2.53;;
9761;SDS011;4920;49.594;11.022;2023-12-20T15:17:44;5.97;;;2.20;;